Time;durP1;ratioP1;P1;durP2;ratioP2;P2;SDS_P1;SDS_P2;PMS_P1;PMS_P2;Temp;Humidity;BMP_temperature;BMP_pressure;BME280_temperature;BME280_humidity;BME280_pressure;Samples;Min_cycle;Max_cycle;Signal;HPM_P1;HPM_P2
2022/06/24 00:01:12;;;;;;;5.45;2.17;;;23.80;95.50;;;;;;5075530;28;20040;-73
2022/06/24 00:03:38;;;;;;;4.82;2.47;;;23.80;95.70;;;;;;5075854;28;20020;-73
2022/06/24 00:06:13;;;;;;;4.70;3.05;;;23.70;96.00;;;;;;5075666;28;20384;-73
2022/06/24 00:08:59;;;;;;;5.28;2.70;;;23.60;96.00;;;;;;5075344;28;20035;-73
2022/06/24 00:11:29;;;;;;;4.53;2.72;;;23.30;96.40;;;;;;5075380;28;20360;-73
2022/06/24 00:14:08;;;;;;;5.32;3.28;;;23.20;96.80;;;;;;5075536;28;20365;-73
2022/06/24 00:17:04;;;;;;;4.80;3.28;;;23.00;97.70;;;;;;5075288;28;20136;-73
2022/06/24 00:19:34;;;;;;;7.85;4.40;;;22.70;97.70;;;;;;5075310;28;20025;-73
2022/06/24 00:22:11;;;;;;;4.75;3.40;;;22.60;98.20;;;;;;5075270;28;20058;-73
2022/06/24 00:24:39;;;;;;;6.28;4.40;;;22.60;98.30;;;;;;5075375;28;20036;-73
2022/06/24 00:27:24;;;;;;;6.28;4.40;;;22.60;98.20;;;;;;5074981;28;20380;-73
2022/06/24 00:29:51;;;;;;;6.00;4.72;;;22.60;98.20;;;;;;5075319;28;20016;-73
2022/06/24 00:32:32;;;;;;;7.18;4.60;;;22.60;98.30;;;;;;5074891;28;20028;-73
2022/06/24 00:35:14;;;;;;;9.98;4.18;;;22.70;98.30;;;;;;5075159;28;20016;-73
2022/06/24 00:37:40;;;;;;;;;;;22.60;98.20;;;;;;5075331;28;20089;-73
2022/06/24 00:40:09;;;;;;;11.30;4.38;;;22.70;98.20;;;;;;5074921;28;19904;-73
2022/06/24 00:42:37;;;;;;;9.80;4.70;;;22.70;98.10;;;;;;5074639;28;20028;-73
2022/06/24 00:45:14;;;;;;;9.68;5.50;;;22.70;98.40;;;;;;5074730;28;20036;-73
2022/06/24 00:47:41;;;;;;;9.15;5.30;;;22.60;98.50;;;;;;5074791;28;20033;-73
2022/06/24 00:50:19;;;;;;;9.93;5.50;;;22.60;98.70;;;;;;5074490;28;20044;-73
2022/06/24 00:52:46;;;;;;;9.77;6.20;;;22.60;98.70;;;;;;5074888;28;20028;-73
2022/06/24 00:55:45;;;;;;;10.70;5.38;;;22.60;98.90;;;;;;5074328;28;20017;-73
2022/06/24 00:58:15;;;;;;;7.43;4.75;;;22.60;99.00;;;;;;5061212;28;20024;-73
2022/06/24 01:00:43;;;;;;;6.90;4.82;;;22.70;98.80;;;;;;5074488;28;20028;-73
2022/06/24 01:03:11;;;;;;;6.65;4.70;;;22.90;98.70;;;;;;5074572;28;20025;-73
2022/06/24 01:05:37;;;;;;;10.73;4.78;;;23.00;98.50;;;;;;5073904;28;20024;-73
2022/06/24 01:08:08;;;;;;;8.23;5.20;;;23.10;98.50;;;;;;5074491;28;20120;-73
2022/06/24 01:10:33;;;;;;;10.07;5.30;;;23.10;98.60;;;;;;5073874;28;20387;-73
2022/06/24 01:12:59;;;;;;;8.07;5.65;;;22.80;98.70;;;;;;5074321;28;20027;-73
2022/06/24 01:15:25;;;;;;;7.35;5.05;;;22.80;98.90;;;;;;5074423;28;20024;-73
2022/06/24 01:17:51;;;;;;;9.50;5.97;;;22.90;98.70;;;;;;5074062;28;20027;-73
2022/06/24 01:20:17;;;;;;;8.50;6.28;;;23.00;98.60;;;;;;5073672;28;20024;-73
2022/06/24 01:22:43;;;;;;;10.55;6.60;;;23.10;98.60;;;;;;5074193;28;20031;-73
2022/06/24 01:25:10;;;;;;;10.48;5.68;;;23.10;98.50;;;;;;5074176;28;20029;-73
2022/06/24 01:27:36;;;;;;;8.88;5.70;;;23.10;98.50;;;;;;5073879;28;20040;-73
2022/06/24 01:30:03;;;;;;;9.20;6.55;;;23.10;98.30;;;;;;5074013;28;20017;-73
2022/06/24 01:32:29;;;;;;;8.10;6.30;;;23.10;98.30;;;;;;5073775;28;20021;-73
2022/06/24 01:34:56;;;;;;;9.68;6.18;;;23.10;98.10;;;;;;5073877;28;20035;-73
2022/06/24 01:37:22;;;;;;;8.05;6.57;;;23.10;98.20;;;;;;5073988;28;20162;-73
2022/06/24 01:39:48;;;;;;;8.57;7.15;;;23.20;98.30;;;;;;5073837;28;20387;-73
2022/06/24 01:42:13;;;;;;;9.68;7.22;;;23.20;98.30;;;;;;5073682;28;20028;-73
2022/06/24 01:44:39;;;;;;;8.40;7.03;;;23.10;98.70;;;;;;5073542;28;20020;-73
2022/06/24 01:47:05;;;;;;;8.90;5.85;;;23.00;98.40;;;;;;5073785;28;20123;-73
2022/06/24 01:49:30;;;;;;;7.03;5.18;;;22.90;98.50;;;;;;5073203;28;20040;-73
2022/06/24 01:51:59;;;;;;;7.68;4.82;;;22.80;98.60;;;;;;5073533;28;20089;-73
2022/06/24 01:54:25;;;;;;;8.07;4.20;;;22.80;98.50;;;;;;5073637;28;20044;-73
2022/06/24 01:56:51;;;;;;;9.23;4.32;;;22.80;98.50;;;;;;5073696;28;20051;-73
2022/06/24 01:59:16;;;;;;;8.27;4.75;;;22.70;98.50;;;;;;5073542;28;20421;-73
2022/06/24 02:01:42;;;;;;;5.70;5.00;;;22.80;98.60;;;;;;5073682;28;20372;-73
2022/06/24 02:04:09;;;;;;;7.60;4.95;;;22.60;98.70;;;;;;5073269;28;20444;-73
2022/06/24 02:06:35;;;;;;;7.00;5.28;;;22.60;99.00;;;;;;5073144;28;20060;-73
2022/06/24 02:09:00;;;;;;;7.20;5.63;;;22.60;99.20;;;;;;5073267;28;20495;-73
2022/06/24 02:14:10;;;;;;;8.35;5.32;;;22.50;99.60;;;;;;5073153;28;20030;-74
2022/06/24 02:16:38;;;;;;;7.00;5.20;;;22.50;99.60;;;;;;5073427;28;20099;-73
2022/06/24 02:19:04;;;;;;;7.00;5.88;;;22.40;99.70;;;;;;5073231;28;20431;-73
2022/06/24 02:21:30;;;;;;;6.93;5.10;;;22.50;99.70;;;;;;5072587;28;20028;-73
2022/06/24 02:23:56;;;;;;;6.50;4.90;;;22.50;99.90;;;;;;5073351;28;20017;-73
2022/06/24 02:26:23;;;;;;;10.20;4.70;;;22.50;99.90;;;;;;5072999;28;20562;-73
2022/06/24 02:28:48;;;;;;;6.80;4.65;;;22.50;99.90;;;;;;5072826;28;20040;-73
2022/06/24 02:31:15;;;;;;;6.85;4.50;;;22.40;99.90;;;;;;5072984;28;20024;-73
2022/06/24 02:33:41;;;;;;;5.70;4.32;;;22.30;99.90;;;;;;5073072;28;20392;-73
2022/06/24 02:36:07;;;;;;;5.32;3.63;;;22.20;99.90;;;;;;5072743;28;20459;-73
2022/06/24 02:38:34;;;;;;;5.32;3.40;;;22.10;99.90;;;;;;5073103;28;20029;-73
2022/06/24 02:41:00;;;;;;;4.20;3.33;;;22.10;99.90;;;;;;5073041;28;20024;-73
2022/06/24 02:43:32;;;;;;;5.10;2.35;;;22.10;99.90;;;;;;5072979;28;20483;-73
2022/06/24 02:46:01;;;;;;;3.15;1.98;;;22.10;99.90;;;;;;5073183;28;20035;-73
2022/06/24 02:48:27;;;;;;;1.80;0.90;;;22.00;99.90;;;;;;5072776;28;20044;-73
2022/06/24 02:50:56;;;;;;;1.85;1.00;;;21.90;99.90;;;;;;5073006;28;20024;-73
2022/06/24 02:53:22;;;;;;;1.55;0.57;;;21.80;99.70;;;;;;5072810;28;20074;-73
2022/06/24 02:55:50;;;;;;;3.28;0.68;;;21.70;99.40;;;;;;5072716;28;20032;-73
2022/06/24 02:58:16;;;;;;;1.73;0.65;;;21.70;99.60;;;;;;5072995;28;20035;-73
2022/06/24 03:00:42;;;;;;;2.60;0.45;;;21.60;99.40;;;;;;5072825;28;20103;-73
2022/06/24 03:03:09;;;;;;;1.70;0.50;;;21.50;99.30;;;;;;5073010;28;20028;-73
2022/06/24 03:05:35;;;;;;;2.22;0.40;;;21.50;99.20;;;;;;5072830;28;20376;-73
2022/06/24 03:08:01;;;;;;;2.80;0.57;;;21.50;99.10;;;;;;5072478;28;20042;-73
2022/06/24 03:10:26;;;;;;;2.00;0.50;;;21.50;99.30;;;;;;5072761;28;20024;-73
2022/06/24 03:12:52;;;;;;;4.05;0.90;;;21.40;99.20;;;;;;5072543;28;20059;-73
2022/06/24 03:15:18;;;;;;;3.13;0.77;;;21.30;99.50;;;;;;5072927;28;20025;-73
2022/06/24 03:17:43;;;;;;;1.50;0.70;;;21.30;99.60;;;;;;5072743;28;20028;-73
2022/06/24 03:20:10;;;;;;;2.00;0.70;;;21.40;99.70;;;;;;5072525;28;20025;-73
2022/06/24 03:22:37;;;;;;;1.15;0.60;;;21.40;99.40;;;;;;5072426;28;20104;-73
2022/06/24 03:25:04;;;;;;;2.30;0.50;;;21.40;99.30;;;;;;5072567;28;20024;-73
2022/06/24 03:27:29;;;;;;;2.80;0.60;;;21.40;99.30;;;;;;5072598;28;20131;-73
2022/06/24 03:29:55;;;;;;;3.05;0.88;;;21.40;99.20;;;;;;5072554;28;20111;-73
2022/06/24 03:32:21;;;;;;;2.05;0.70;;;21.40;99.30;;;;;;5072858;28;20032;-73
2022/06/24 03:34:46;;;;;;;1.98;0.90;;;21.50;99.20;;;;;;5076306;28;20107;-73
2022/06/24 03:37:13;;;;;;;1.90;0.93;;;21.50;99.20;;;;;;5076008;28;20020;-73
2022/06/24 03:39:38;;;;;;;2.17;0.93;;;21.50;99.50;;;;;;5075925;28;20065;-73
2022/06/24 03:42:04;;;;;;;2.28;0.70;;;21.50;99.10;;;;;;5075809;28;20020;-73
2022/06/24 03:44:30;;;;;;;2.95;1.40;;;21.50;99.00;;;;;;5075880;28;20020;-73
2022/06/24 03:46:56;;;;;;;3.67;0.98;;;21.60;98.90;;;;;;5075797;28;20029;-73
2022/06/24 03:49:21;;;;;;;4.28;0.95;;;21.60;98.90;;;;;;5075710;28;20041;-73
2022/06/24 03:51:47;;;;;;;1.80;0.90;;;21.60;99.00;;;;;;5076064;28;20021;-73
2022/06/24 03:54:13;;;;;;;2.55;0.90;;;21.70;98.70;;;;;;5075663;28;20471;-73
2022/06/24 03:56:38;;;;;;;2.80;1.40;;;21.70;98.70;;;;;;5075617;28;20032;-73
2022/06/24 03:59:04;;;;;;;3.35;1.20;;;21.70;98.30;;;;;;5075780;28;20025;-73
2022/06/24 04:01:30;;;;;;;2.65;1.00;;;21.60;98.20;;;;;;5075779;28;20372;-73
2022/06/24 04:03:55;;;;;;;2.28;0.85;;;21.60;98.30;;;;;;5075591;28;20418;-73
2022/06/24 04:06:21;;;;;;;2.28;0.63;;;21.60;98.20;;;;;;5075331;28;20048;-73
2022/06/24 04:08:47;;;;;;;3.53;0.90;;;21.60;98.10;;;;;;5075427;28;20028;-73
2022/06/24 04:11:16;;;;;;;2.05;0.73;;;21.60;98.10;;;;;;5075801;28;20028;-73
2022/06/24 04:13:42;;;;;;;4.60;0.80;;;21.70;98.00;;;;;;5075586;28;20025;-73
2022/06/24 04:16:08;;;;;;;2.42;0.90;;;21.70;98.00;;;;;;5075601;28;20071;-73
2022/06/24 04:18:34;;;;;;;2.97;1.00;;;21.70;98.00;;;;;;5075161;28;20023;-73
2022/06/24 04:21:00;;;;;;;1.95;0.63;;;21.60;98.00;;;;;;5075212;28;20032;-73
2022/06/24 04:23:26;;;;;;;4.00;0.50;;;21.60;97.90;;;;;;5075440;28;20047;-73
2022/06/24 04:25:51;;;;;;;2.60;0.90;;;21.60;97.90;;;;;;5075219;28;20048;-73
2022/06/24 04:28:17;;;;;;;2.45;0.75;;;21.60;97.90;;;;;;5075305;28;20103;-73
2022/06/24 04:30:43;;;;;;;3.30;0.90;;;21.60;97.90;;;;;;5075312;28;20017;-73
2022/06/24 04:33:09;;;;;;;4.05;0.82;;;21.50;97.90;;;;;;5074694;28;20031;-73
2022/06/24 04:35:35;;;;;;;3.65;0.98;;;21.50;98.00;;;;;;5074986;28;20032;-73
2022/06/24 04:38:01;;;;;;;2.28;1.00;;;21.50;98.00;;;;;;5075093;28;20029;-72
2022/06/24 04:40:26;;;;;;;3.17;1.00;;;21.50;98.20;;;;;;5074641;28;20078;-71
2022/06/24 04:42:52;;;;;;;1.98;0.80;;;21.40;98.30;;;;;;5074852;28;20029;-71
2022/06/24 04:45:17;;;;;;;2.85;0.75;;;21.50;98.20;;;;;;5074091;28;20056;-71
2022/06/24 04:47:43;;;;;;;2.95;1.40;;;21.60;98.10;;;;;;5074921;28;20064;-71
2022/06/24 04:50:09;;;;;;;2.63;1.40;;;21.60;98.00;;;;;;5074486;28;20496;-71
2022/06/24 04:52:36;;;;;;;2.95;0.90;;;21.60;98.10;;;;;;5074709;28;20067;-71
2022/06/24 04:55:03;;;;;;;3.53;1.05;;;21.60;98.20;;;;;;5074556;28;20487;-71
2022/06/24 04:57:28;;;;;;;3.53;1.42;;;21.60;98.20;;;;;;5074647;28;20032;-71
2022/06/24 04:59:54;;;;;;;2.88;1.20;;;21.60;98.20;;;;;;5074705;28;20024;-71
2022/06/24 05:02:21;;;;;;;1.73;0.80;;;21.70;98.10;;;;;;5074478;28;20075;-73
2022/06/24 05:04:46;;;;;;;2.53;1.15;;;21.60;98.10;;;;;;5074150;28;20472;-74
2022/06/24 05:07:12;;;;;;;1.88;0.77;;;21.60;98.00;;;;;;5073982;28;20036;-71
2022/06/24 05:09:37;;;;;;;2.53;1.08;;;21.60;98.00;;;;;;5073920;28;20025;-71
2022/06/24 05:12:04;;;;;;;2.65;0.95;;;21.60;97.90;;;;;;5073803;28;20028;-71
2022/06/24 05:14:29;;;;;;;2.63;1.10;;;21.70;98.00;;;;;;5074243;28;20070;-71
2022/06/24 05:16:56;;;;;;;3.90;0.88;;;21.70;97.90;;;;;;5073812;28;20029;-71
2022/06/24 05:19:22;;;;;;;2.83;0.90;;;21.70;97.80;;;;;;5073517;28;20082;-71
2022/06/24 05:21:48;;;;;;;2.35;1.30;;;21.80;97.80;;;;;;5073706;28;20017;-73
2022/06/24 05:24:14;;;;;;;2.65;1.05;;;21.80;97.70;;;;;;5073644;28;20495;-73
2022/06/24 05:26:42;;;;;;;2.33;0.85;;;21.80;97.70;;;;;;5073806;28;20126;-73
2022/06/24 05:29:08;;;;;;;4.90;1.23;;;21.80;97.60;;;;;;5073464;28;20127;-73
2022/06/24 05:31:33;;;;;;;2.47;1.20;;;21.80;97.60;;;;;;5073383;28;20058;-73
2022/06/24 05:33:59;;;;;;;4.10;1.10;;;21.80;97.70;;;;;;5073891;28;20052;-73
2022/06/24 05:36:25;;;;;;;2.05;0.90;;;21.80;97.70;;;;;;5073413;28;20028;-73
2022/06/24 05:38:51;;;;;;;3.90;1.10;;;21.80;97.80;;;;;;5073502;28;20051;-74
2022/06/24 05:41:17;;;;;;;1.95;1.00;;;21.90;97.70;;;;;;5073608;28;20020;-72
2022/06/24 05:43:44;;;;;;;2.03;0.98;;;21.90;97.60;;;;;;5073264;28;20032;-72
2022/06/24 05:46:09;;;;;;;4.25;0.93;;;21.90;97.50;;;;;;5073597;28;20036;-72
2022/06/24 05:48:35;;;;;;;3.88;1.40;;;21.90;97.50;;;;;;5073259;28;20049;-72
2022/06/24 05:51:12;;;;;;;3.33;1.20;;;21.90;97.60;;;;;;5072961;28;20095;-72
2022/06/24 05:56:22;;;;;;;2.13;1.08;;;21.80;97.70;;;;;;5072395;28;20108;-71
2022/06/24 05:58:48;;;;;;;3.90;1.58;;;21.70;98.00;;;;;;5072997;28;20471;-84
2022/06/24 06:01:14;;;;;;;4.10;0.90;;;21.60;98.10;;;;;;5078086;28;20024;-81
2022/06/24 06:03:40;;;;;;;3.00;1.52;;;21.60;97.90;;;;;;5093502;28;20039;-78
2022/06/24 06:06:07;;;;;;;2.15;0.77;;;21.80;97.80;;;;;;5093769;28;20070;-77
2022/06/24 06:08:34;;;;;;;2.55;0.90;;;22.00;97.60;;;;;;5093595;28;20183;-78
2022/06/24 06:10:59;;;;;;;2.60;0.88;;;22.10;97.40;;;;;;5093743;28;20016;-78
2022/06/24 06:13:25;;;;;;;2.40;0.98;;;22.30;97.00;;;;;;5093478;28;20461;-79
2022/06/24 06:15:50;;;;;;;2.75;1.23;;;22.40;96.70;;;;;;5093397;28;20053;-77
2022/06/24 06:18:16;;;;;;;6.80;1.60;;;22.50;96.50;;;;;;5092793;28;20024;-77
2022/06/24 06:20:42;;;;;;;4.55;1.08;;;22.50;96.60;;;;;;5093044;28;20467;-78
2022/06/24 06:23:07;;;;;;;2.80;1.13;;;22.50;96.60;;;;;;5093217;28;20452;-82
2022/06/24 06:25:36;;;;;;;6.07;1.30;;;22.50;96.60;;;;;;5092866;28;20024;-75
2022/06/24 06:28:02;;;;;;;6.13;1.10;;;22.60;96.60;;;;;;5092054;28;20036;-76
2022/06/24 06:30:30;;;;;;;1.88;0.80;;;22.70;96.60;;;;;;5091533;28;20020;-75
2022/06/24 06:32:55;;;;;;;2.60;1.17;;;22.80;96.40;;;;;;5091709;28;20028;-75
2022/06/24 06:35:21;;;;;;;2.40;0.90;;;22.80;96.20;;;;;;5088877;28;20455;-75
2022/06/24 06:37:46;;;;;;;3.80;1.08;;;22.90;96.20;;;;;;5091351;28;20020;-76
2022/06/24 06:40:12;;;;;;;2.90;1.10;;;23.00;96.10;;;;;;5091239;28;20020;-76
2022/06/24 06:42:38;;;;;;;1.98;0.80;;;23.00;96.00;;;;;;5091622;28;20016;-76
2022/06/24 06:45:04;;;;;;;2.45;0.85;;;23.00;95.90;;;;;;5091349;28;20046;-74
2022/06/24 06:47:29;;;;;;;3.45;0.90;;;23.00;95.80;;;;;;5089010;28;20032;-73
2022/06/24 06:49:55;;;;;;;1.95;0.60;;;23.10;95.70;;;;;;5091443;28;20372;-75
2022/06/24 06:52:21;;;;;;;2.65;1.05;;;23.20;95.60;;;;;;5091808;28;20020;-74
2022/06/24 06:54:46;;;;;;;3.08;0.82;;;23.20;95.40;;;;;;5091669;28;20055;-84
2022/06/24 06:57:12;;;;;;;2.40;0.70;;;23.20;95.30;;;;;;5090850;28;20048;-76
2022/06/24 06:59:38;;;;;;;2.42;1.15;;;23.20;95.20;;;;;;5089448;28;20024;-76
2022/06/24 07:02:04;;;;;;;2.38;0.93;;;23.30;95.20;;;;;;5091469;28;20039;-75
2022/06/24 07:04:29;;;;;;;2.50;1.58;;;23.20;95.30;;;;;;5092894;28;20097;-74
2022/06/24 07:06:55;;;;;;;3.55;2.05;;;23.20;95.50;;;;;;5093143;28;20115;-75
2022/06/24 07:09:20;;;;;;;1.63;1.15;;;23.00;95.80;;;;;;5096477;28;20536;-76
2022/06/24 07:11:46;;;;;;;2.25;1.42;;;22.80;96.10;;;;;;5096900;28;20035;-75
2022/06/24 07:14:11;;;;;;;2.20;1.77;;;22.70;96.30;;;;;;5096772;28;20382;-75
2022/06/24 07:16:37;;;;;;;5.45;1.50;;;22.60;96.60;;;;;;5096343;28;20024;-75
2022/06/24 07:19:03;;;;;;;4.03;2.13;;;22.50;96.70;;;;;;5096919;28;20443;-75
2022/06/24 07:21:29;;;;;;;4.30;2.13;;;22.50;96.90;;;;;;5096734;28;20058;-75
2022/06/24 07:23:54;;;;;;;4.68;2.00;;;22.30;97.10;;;;;;5096813;28;20035;-75
2022/06/24 07:26:20;;;;;;;4.50;2.00;;;22.30;97.50;;;;;;5096709;28;20039;-75
2022/06/24 07:28:46;;;;;;;4.68;1.60;;;22.10;97.60;;;;;;5096313;28;20027;-76
2022/06/24 07:31:19;;;;;;;3.33;1.70;;;22.00;97.70;;;;;;5096180;28;20062;-76
2022/06/24 07:33:46;;;;;;;2.28;1.48;;;22.00;97.80;;;;;;5096550;28;20032;-76
2022/06/24 07:36:11;;;;;;;4.00;1.60;;;22.00;97.70;;;;;;5096431;28;20042;-75
2022/06/24 07:38:38;;;;;;;2.53;1.98;;;22.00;97.80;;;;;;5096411;28;20511;-76
2022/06/24 07:41:03;;;;;;;5.05;1.80;;;22.00;97.90;;;;;;5095975;28;20059;-76
2022/06/24 07:43:29;;;;;;;2.33;1.80;;;22.00;98.00;;;;;;5095781;28;20028;-77
2022/06/24 07:45:56;;;;;;;2.95;1.95;;;22.00;98.10;;;;;;5095785;28;20028;-75
2022/06/24 07:48:21;;;;;;;7.72;2.50;;;21.90;98.30;;;;;;5095752;28;20044;-76
2022/06/24 07:50:47;;;;;;;4.45;2.55;;;21.90;98.40;;;;;;5096007;28;20107;-76
2022/06/24 07:53:13;;;;;;;4.32;2.85;;;21.90;98.50;;;;;;5095506;28;20020;-76
2022/06/24 07:58:30;;;;;;;4.07;0.90;;;21.80;98.70;;;;;;5087233;28;20479;-79
2022/06/24 08:00:56;;;;;;;3.00;1.30;;;21.80;98.70;;;;;;5094930;28;20103;-79
2022/06/24 08:03:21;;;;;;;4.25;2.40;;;22.00;98.40;;;;;;5093434;28;20131;-79
2022/06/24 08:05:47;;;;;;;4.55;2.60;;;22.10;98.20;;;;;;5100665;28;20107;-79
2022/06/24 08:08:12;;;;;;;4.63;2.22;;;22.10;98.10;;;;;;5095903;28;20032;-79
2022/06/24 08:10:38;;;;;;;2.92;1.58;;;22.20;98.10;;;;;;5092636;28;20116;-79
2022/06/24 08:13:04;;;;;;;2.75;1.90;;;22.20;97.90;;;;;;5092552;28;20020;-79
2022/06/24 08:15:29;;;;;;;2.47;1.33;;;22.30;97.90;;;;;;5092704;28;20514;-80
2022/06/24 08:17:55;;;;;;;2.65;2.13;;;22.40;97.70;;;;;;5092786;28;20077;-79
2022/06/24 08:20:21;;;;;;;3.47;2.45;;;22.40;97.70;;;;;;5092736;28;20106;-79
2022/06/24 08:22:46;;;;;;;3.67;2.47;;;22.50;97.50;;;;;;5093761;28;20471;-79
2022/06/24 08:25:12;;;;;;;2.95;2.05;;;22.50;97.50;;;;;;5093747;28;20053;-77
2022/06/24 08:27:37;;;;;;;2.88;1.88;;;22.50;97.60;;;;;;5095465;28;20089;-73
2022/06/24 08:30:04;;;;;;;3.38;1.70;;;22.50;97.50;;;;;;5094054;28;20023;-74
2022/06/24 08:32:30;;;;;;;2.60;2.30;;;22.50;97.50;;;;;;5093513;28;20081;-75
2022/06/24 08:34:55;;;;;;;3.88;2.50;;;22.60;97.40;;;;;;5092878;28;20107;-75
2022/06/24 08:37:21;;;;;;;3.08;2.33;;;22.70;97.30;;;;;;5093056;28;20032;-86
2022/06/24 08:39:47;;;;;;;5.35;2.70;;;22.70;97.10;;;;;;5093071;28;20039;-79
2022/06/24 08:42:13;;;;;;;3.97;2.30;;;22.70;97.10;;;;;;5092060;28;20056;-78
2022/06/24 08:44:40;;;;;;;4.40;2.20;;;22.70;97.10;;;;;;5091312;28;20057;-78
2022/06/24 08:47:06;;;;;;;3.40;2.05;;;22.70;97.20;;;;;;5091812;28;20043;-77
2022/06/24 08:49:32;;;;;;;6.72;3.58;;;22.80;97.20;;;;;;5091390;28;20402;-77
2022/06/24 08:52:00;;;;;;;7.53;3.78;;;22.80;97.20;;;;;;5091856;28;20028;-77
2022/06/24 08:54:30;;;;;;;4.07;2.78;;;22.90;97.30;;;;;;5091745;28;20024;-76
2022/06/24 08:56:56;;;;;;;4.82;3.80;;;22.90;97.50;;;;;;5092090;28;20040;-77
2022/06/24 08:59:22;;;;;;;6.47;4.70;;;22.90;97.60;;;;;;5089323;28;20375;-75
2022/06/24 09:01:48;;;;;;;4.45;4.05;;;22.90;97.40;;;;;;5093119;28;20477;-76
2022/06/24 09:04:14;;;;;;;5.93;3.85;;;22.80;97.40;;;;;;5093423;28;20016;-76
2022/06/24 09:06:41;;;;;;;4.82;3.38;;;22.70;97.60;;;;;;5092815;28;20490;-75
2022/06/24 09:09:07;;;;;;;4.82;3.90;;;22.70;97.60;;;;;;5091442;28;20028;-75
2022/06/24 09:11:40;;;;;;;5.93;4.13;;;22.70;97.60;;;;;;5091824;28;20024;-75
2022/06/24 09:14:07;;;;;;;3.17;2.55;;;22.70;97.60;;;;;;5091646;28;20111;-73
2022/06/24 09:16:36;;;;;;;7.15;3.85;;;22.80;97.70;;;;;;5092532;28;20059;-74
2022/06/24 09:19:05;;;;;;;3.88;2.30;;;22.80;97.70;;;;;;5091844;28;20032;-75
2022/06/24 09:21:36;;;;;;;7.88;2.50;;;22.80;97.60;;;;;;5083959;28;20030;-75
2022/06/24 09:24:03;;;;;;;5.03;3.40;;;22.90;97.60;;;;;;5105449;28;20024;-74
2022/06/24 09:26:39;;;;;;;4.10;2.20;;;22.90;97.70;;;;;;5093485;28;20498;-75
2022/06/24 09:29:09;;;;;;;4.18;3.17;;;22.80;97.60;;;;;;5092992;28;20036;-75
2022/06/24 09:31:36;;;;;;;4.25;3.85;;;22.80;97.80;;;;;;5090169;28;20550;-74
2022/06/24 09:34:20;;;;;;;3.60;3.08;;;22.80;98.00;;;;;;5092236;28;20031;-79
2022/06/24 09:36:47;;;;;;;3.92;3.58;;;22.80;98.10;;;;;;5092160;28;20024;-79
2022/06/24 09:39:16;;;;;;;4.57;3.15;;;22.80;98.20;;;;;;5091905;28;20054;-78
2022/06/24 09:41:55;;;;;;;6.03;3.35;;;22.80;98.20;;;;;;5089184;28;20047;-78
2022/06/24 09:44:24;;;;;;;5.78;4.72;;;22.80;98.10;;;;;;5091034;28;20024;-77
2022/06/24 09:47:05;;;;;;;7.03;5.97;;;22.80;98.00;;;;;;5091132;28;20036;-77
2022/06/24 09:49:31;;;;;;;5.57;4.65;;;22.70;98.10;;;;;;5091051;28;20046;-77
2022/06/24 09:51:58;;;;;;;4.15;3.10;;;22.60;98.30;;;;;;5090777;28;20032;-78
2022/06/24 09:54:25;;;;;;;5.80;4.63;;;22.70;98.40;;;;;;5090872;28;20031;-78
2022/06/24 09:56:52;;;;;;;6.55;5.93;;;22.70;98.40;;;;;;5090788;28;20103;-80
2022/06/24 10:02:04;;;;;;;6.88;6.03;;;22.70;98.30;;;;;;5091543;28;20085;-78
2022/06/24 10:04:31;;;;;;;8.98;5.40;;;22.60;98.20;;;;;;5092460;28;20574;-77
2022/06/24 10:06:57;;;;;;;7.75;7.03;;;22.60;98.30;;;;;;5092379;28;20115;-75
2022/06/24 10:09:26;;;;;;;5.25;4.80;;;22.60;98.50;;;;;;5092053;28;20103;-78
2022/06/24 10:11:54;;;;;;;9.63;6.63;;;22.50;98.50;;;;;;5091512;28;20474;-77
2022/06/24 10:14:20;;;;;;;9.27;8.05;;;22.50;98.70;;;;;;5089257;28;20119;-77
2022/06/24 10:16:48;;;;;;;9.75;7.38;;;22.50;98.60;;;;;;5091507;28;20050;-77
2022/06/24 10:19:16;;;;;;;7.15;6.47;;;22.50;98.70;;;;;;5092008;28;20059;-77
2022/06/24 10:21:42;;;;;;;8.45;7.68;;;22.50;98.60;;;;;;5091141;28;20501;-77
2022/06/24 10:24:16;;;;;;;9.38;7.55;;;22.60;98.70;;;;;;5091849;28;20076;-76
2022/06/24 10:26:45;;;;;;;7.68;6.05;;;22.60;98.80;;;;;;5091567;28;20029;-78
2022/06/24 10:29:14;;;;;;;8.02;7.32;;;22.70;98.70;;;;;;5091024;28;20020;-75
2022/06/24 10:31:45;;;;;;;8.80;7.90;;;22.80;98.70;;;;;;5091644;28;20036;-75
2022/06/24 10:34:12;;;;;;;11.95;10.07;;;22.80;98.40;;;;;;5091171;28;20020;-75
2022/06/24 10:36:38;;;;;;;11.18;9.95;;;22.80;97.90;;;;;;5092616;28;20040;-76
2022/06/24 10:39:14;;;;;;;12.05;10.75;;;22.80;98.00;;;;;;5092853;28;20024;-75
2022/06/24 10:41:41;;;;;;;12.25;11.05;;;22.70;98.00;;;;;;5092809;28;20066;-75
2022/06/24 10:44:49;;;;;;;12.80;10.15;;;22.70;97.90;;;;;;5095654;28;20103;-75
2022/06/24 10:47:15;;;;;;;10.80;9.70;;;22.70;98.00;;;;;;5094896;28;20097;-75
2022/06/24 10:49:55;;;;;;;9.00;8.20;;;22.60;98.00;;;;;;5094931;28;20036;-74
2022/06/24 10:53:02;;;;;;;10.88;8.57;;;22.70;98.20;;;;;;5095171;28;20028;-75
2022/06/24 10:55:32;;;;;;;9.25;8.40;;;22.70;97.90;;;;;;5092738;28;20024;-74
2022/06/24 10:58:03;;;;;;;8.98;8.07;;;22.80;97.80;;;;;;5095055;28;20379;-75
2022/06/24 11:00:53;;;;;;;10.65;9.23;;;23.00;97.90;;;;;;5096643;28;20024;-75
2022/06/24 11:03:22;;;;;;;9.45;8.45;;;23.20;97.50;;;;;;5096983;28;20028;-75
2022/06/24 11:05:48;;;;;;;7.80;7.07;;;23.20;96.70;;;;;;5096769;28;20032;-75
2022/06/24 11:08:17;;;;;;;8.02;7.22;;;23.30;96.80;;;;;;5096485;28;20032;-75
2022/06/24 11:10:43;;;;;;;9.90;8.20;;;23.40;96.80;;;;;;5097117;28;20103;-75
2022/06/24 11:13:10;;;;;;;8.88;8.00;;;23.60;97.30;;;;;;5096799;28;20089;-74
2022/06/24 11:15:42;;;;;;;9.05;8.23;;;23.70;96.80;;;;;;5096945;28;20016;-75
2022/06/24 11:18:09;;;;;;;;;;;23.90;96.50;;;;;;5097284;28;20016;-75
2022/06/24 11:20:37;;;;;;;8.57;6.57;;;24.10;96.20;;;;;;5095835;28;19915;-75
2022/06/24 11:23:09;;;;;;;7.93;6.28;;;24.10;95.20;;;;;;5096730;28;20031;-75
2022/06/24 11:25:37;;;;;;;7.07;5.78;;;24.20;94.40;;;;;;5096582;28;20057;-75
2022/06/24 11:28:03;;;;;;;5.68;5.07;;;24.10;93.80;;;;;;5096299;28;20429;-75
2022/06/24 11:30:28;;;;;;;5.20;4.80;;;24.10;93.50;;;;;;5096607;28;20119;-75
2022/06/24 11:32:59;;;;;;;7.93;4.63;;;24.00;93.40;;;;;;5096308;28;20031;-75
2022/06/24 11:35:26;;;;;;;5.55;5.05;;;24.10;93.30;;;;;;5096526;28;20020;-75
2022/06/24 11:37:53;;;;;;;4.35;4.05;;;24.20;93.30;;;;;;5096296;28;20087;-75
2022/06/24 11:40:22;;;;;;;4.30;3.90;;;24.40;93.30;;;;;;5096244;28;20391;-75
2022/06/24 11:42:47;;;;;;;5.18;3.90;;;24.60;93.30;;;;;;5096024;28;20024;-75
2022/06/24 11:45:13;;;;;;;5.05;3.90;;;24.70;92.20;;;;;;5096272;28;20020;-75
2022/06/24 11:47:39;;;;;;;6.05;4.00;;;24.60;91.70;;;;;;5096175;28;20036;-75
2022/06/24 11:50:05;;;;;;;4.43;3.30;;;24.60;91.90;;;;;;5095376;28;20129;-75
2022/06/24 11:52:45;;;;;;;2.80;2.55;;;24.60;92.10;;;;;;5095994;28;20055;-75
2022/06/24 11:55:31;;;;;;;3.80;2.28;;;24.60;92.00;;;;;;5095078;28;20479;-75
2022/06/24 11:57:58;;;;;;;4.90;2.97;;;24.70;92.00;;;;;;5095159;28;20039;-75
2022/06/24 12:00:26;;;;;;;5.88;4.03;;;24.60;91.70;;;;;;5095092;28;20020;-75
2022/06/24 12:02:54;;;;;;;4.43;3.55;;;24.40;91.40;;;;;;5095553;28;20062;-75
2022/06/24 12:05:21;;;;;;;7.28;4.50;;;24.30;91.70;;;;;;5095532;28;20463;-75
2022/06/24 12:07:48;;;;;;;5.47;3.83;;;24.10;92.40;;;;;;5095302;28;20093;-75
2022/06/24 12:10:14;;;;;;;7.38;6.45;;;24.00;92.40;;;;;;5095373;28;20027;-75
2022/06/24 12:12:56;;;;;;;9.18;7.63;;;23.80;93.00;;;;;;5095700;28;20024;-75
2022/06/24 12:15:25;;;;;;;9.82;8.90;;;23.60;93.90;;;;;;5094856;28;20020;-75
2022/06/24 12:17:52;;;;;;;9.27;8.38;;;23.40;95.00;;;;;;5095457;28;20032;-75
2022/06/24 12:20:25;;;;;;;7.70;7.00;;;23.10;95.60;;;;;;5095200;28;20417;-75
2022/06/24 12:23:18;;;;;;;3.65;3.35;;;22.90;96.10;;;;;;5095149;28;20035;-74
2022/06/24 12:25:45;;;;;;;3.00;2.78;;;22.70;95.70;;;;;;5095246;28;20503;-75
2022/06/24 12:28:13;;;;;;;3.53;2.10;;;22.60;95.90;;;;;;5095432;28;20032;-75
2022/06/24 12:30:38;;;;;;;3.25;2.38;;;22.50;95.40;;;;;;5095503;28;20020;-75
2022/06/24 12:33:12;;;;;;;2.83;2.58;;;22.40;95.80;;;;;;5095122;28;20158;-75
2022/06/24 12:35:38;;;;;;;3.65;3.33;;;22.40;96.00;;;;;;5095167;28;20371;-75
2022/06/24 12:38:13;;;;;;;5.32;4.03;;;22.50;96.70;;;;;;5094946;28;20024;-75
2022/06/24 12:40:42;;;;;;;4.32;3.80;;;22.60;97.20;;;;;;5094498;28;20020;-75
2022/06/24 12:43:11;;;;;;;4.97;3.97;;;22.80;97.40;;;;;;5094979;28;20028;-75
2022/06/24 12:45:39;;;;;;;6.07;4.10;;;23.00;97.40;;;;;;5094877;28;20532;-75
2022/06/24 12:50:58;;;;;;;3.15;2.90;;;23.50;98.90;;;;;;5094952;28;20054;-75
2022/06/24 12:53:24;;;;;;;3.20;2.90;;;23.70;98.00;;;;;;5094962;28;20028;-75
2022/06/24 12:55:49;;;;;;;3.55;3.25;;;23.70;96.30;;;;;;5094515;28;20074;-75
2022/06/24 12:58:15;;;;;;;3.13;2.83;;;24.00;96.00;;;;;;5094427;28;20034;-75
2022/06/24 13:00:41;;;;;;;2.25;2.00;;;24.10;96.40;;;;;;5094955;28;20108;-75
2022/06/24 13:03:06;;;;;;;3.58;2.33;;;24.10;96.50;;;;;;5094406;28;20475;-75